aviador You're here:

LBSF Decoded Metar

SOFIA in BULGARIA
Report Time2018-02-21 05:00:00
UTC Time2018-02-21 05:13:39
Flight Rules vfr VFR
Wind110° at 15 kt
W.Decomp.*RWY 09: 14.3 kt HW 4.4 kt RCW
W.Rank110° ranks 4
Current wind is above 110° avg. (7.4)
Visibility9999 m
Phenomena:N/A
Clouds:Few 017 Hf
Broken 065 Hf
Ceiling6,500 ft
Temp00°C (ISA -11)
Dew Point00°C (100% RH)
AAT-7.4°C
QNH1010 hPa
Density Alt794 ft
Elevation1,952 ft
Report Wrong Elevation
Raw Report
LBSF 210500Z 11015KT 9999 FEW017 BKN065 00/M00 Q1010 R99/29//95
NOSIG=

Extra information for LBSF:More info

Metar Taf Metar & Taf Last 4 Metars F.Rules Stats Wind Profile Meteogram Temp Stats Airport Information Weather charts Add Link Nearby VenuesMetar ALERT Operation Metar Decoded Social comments